Terminal Aerodrome Forecast
Issued by NWS

Home | Current Version | Previous Version | Text Only | Print | Product List | Glossary On
Versions: 1 2 3 4 5 6 7 8 9 10 11 12 13 14 15 16
257
FTUS43 KBIS 061838 AAA
TAFJMS
TAF AMD
KJMS 061838Z 0619/0718 36021G29KT P6SM VCSH SCT100
     FM062000 35019G27KT P6SM SCT120
     FM070200 02008KT P6SM FEW250
     FM071700 35007KT P6SM SKC=

USA.gov is the U.S. government's official web portal to all federal, state and local government web resources and services.